Time;durP1;ratioP1;P1;durP2;ratioP2;P2;SDS_P1;SDS_P2;PMS_P1;PMS_P2;Temp;Humidity;BMP_temperature;BMP_pressure;BME280_temperature;BME280_humidity;BME280_pressure;Samples;Min_cycle;Max_cycle;Signal;HPM_P1;HPM_P2
2022/07/12 00:00:47;;;;;;;17.60;15.80;;;;;;;;;;5052476;28;20906;-75
2022/07/12 00:03:14;;;;;;;15.57;14.07;;;;;;;;;;5052954;28;20430;-74
2022/07/12 00:05:41;;;;;;;17.20;15.50;;;;;;;;;;5067900;28;20469;-74
2022/07/12 00:08:10;;;;;;;18.07;16.37;;;;;;;;;;5074925;28;20415;-74
2022/07/12 00:10:37;;;;;;;15.67;14.27;;;;;;;;;;5068481;28;20433;-74
2022/07/12 00:13:05;;;;;;;16.70;15.10;;;;;;;;;;5060635;28;20449;-74
2022/07/12 00:15:32;;;;;;;17.70;15.97;;;;;;;;;;5055480;28;20468;-74
2022/07/12 00:17:59;;;;;;;17.13;15.43;;;;;;;;;;5051968;28;20956;-74
2022/07/12 00:20:26;;;;;;;15.80;14.30;;;;;;;;;;5051362;28;20441;-74
2022/07/12 00:22:54;;;;;;;16.20;14.60;;;;;;;;;;5052050;28;20472;-74
2022/07/12 00:25:23;;;;;;;17.83;15.93;;;;;;;;;;5052209;28;20480;-74
2022/07/12 00:27:50;;;;;;;17.77;15.90;;;;;;;;;;5067086;28;20869;-74
2022/07/12 00:30:17;;;;;;;16.33;14.80;;;;;;;;;;5074126;28;20497;-74
2022/07/12 00:32:44;;;;;;;16.63;15.00;;;;;;;;;;5068622;28;20465;-74
2022/07/12 00:35:12;;;;;;;15.53;14.03;;;;;;;;;;5062008;28;20549;-74
2022/07/12 00:37:39;;;;;;;17.00;15.30;;;;;;;;;;5064647;28;20436;-74
2022/07/12 00:40:08;;;;;;;17.23;15.73;;;;;;;;;;5071510;28;20432;-74
2022/07/12 00:42:38;;;;;;;16.43;14.83;;;;;;;;;;5069678;28;20925;-74
2022/07/12 00:45:06;;;;;;;17.90;16.13;;;;;;;;;;5071543;28;20484;-74
2022/07/12 00:47:37;;;;;;;15.97;14.43;;;;;;;;;;5072157;28;20821;-74
2022/07/12 00:50:05;;;;;;;17.67;15.87;;;;;;;;;;5072909;28;20451;-74
2022/07/12 00:52:32;;;;;;;17.63;15.83;;;;;;;;;;5073975;28;20440;-74
2022/07/12 00:54:59;;;;;;;16.53;14.83;;;;;;;;;;5068250;28;20813;-74
2022/07/12 00:57:26;;;;;;;16.93;15.13;;;;;;;;;;5060957;28;20942;-74
2022/07/12 00:59:55;;;;;;;16.10;14.50;;;;;;;;;;5064292;28;20432;-74
2022/07/12 01:02:22;;;;;;;17.33;15.63;;;;;;;;;;5071284;28;20536;-74
2022/07/12 01:04:49;;;;;;;16.40;14.90;;;;;;;;;;5069649;28;20566;-74
2022/07/12 01:07:16;;;;;;;17.13;15.30;;;;;;;;;;5071342;28;20440;-74
2022/07/12 01:09:44;;;;;;;16.17;14.67;;;;;;;;;;5072044;28;20451;-74
2022/07/12 01:12:11;;;;;;;18.23;16.27;;;;;;;;;;5072174;28;20452;-74
2022/07/12 01:14:39;;;;;;;15.53;14.03;;;;;;;;;;5073419;28;20444;-74
2022/07/12 01:17:08;;;;;;;18.47;16.57;;;;;;;;;;5068700;28;20428;-74
2022/07/12 01:19:37;;;;;;;17.60;15.80;;;;;;;;;;5060483;28;20467;-74
2022/07/12 01:22:07;;;;;;;15.60;14.07;;;;;;;;;;5064162;28;20431;-74
2022/07/12 01:24:36;;;;;;;15.70;13.97;;;;;;;;;;5071001;28;20452;-74
2022/07/12 01:27:03;;;;;;;18.67;15.00;;;;;;;;;;5070522;28;20448;-74
2022/07/12 01:29:31;;;;;;;16.33;14.57;;;;;;;;;;5071345;28;20442;-74
2022/07/12 01:32:24;;;;;;;16.60;15.00;;;;;;;;;;5071482;28;20486;-74
2022/07/12 01:34:50;;;;;;;18.23;16.37;;;;;;;;;;5070916;28;20431;-74
2022/07/12 01:37:18;;;;;;;17.37;15.60;;;;;;;;;;5073336;28;20451;-73
2022/07/12 01:39:47;;;;;;;18.40;16.50;;;;;;;;;;5066207;28;20449;-74
2022/07/12 01:42:14;;;;;;;17.30;15.60;;;;;;;;;;5058099;28;20439;-75
2022/07/12 01:44:42;;;;;;;17.20;15.40;;;;;;;;;;5064609;28;20526;-74
2022/07/12 01:47:10;;;;;;;19.37;17.37;;;;;;;;;;5070810;28;20446;-74
2022/07/12 01:49:37;;;;;;;18.07;16.27;;;;;;;;;;5070355;28;21001;-74
2022/07/12 01:52:06;;;;;;;20.20;18.20;;;;;;;;;;5071109;28;20535;-75
2022/07/12 01:54:34;;;;;;;21.10;18.90;;;;;;;;;;5071412;28;20963;-74
2022/07/12 01:57:02;;;;;;;19.70;17.63;;;;;;;;;;5072003;28;20460;-75
2022/07/12 01:59:30;;;;;;;20.47;18.20;;;;;;;;;;5073175;28;20792;-74
2022/07/12 02:01:58;;;;;;;19.93;17.83;;;;;;;;;;5067207;28;20490;-75
2022/07/12 02:04:25;;;;;;;20.00;18.00;;;;;;;;;;5060360;28;20438;-74
2022/07/12 02:06:52;;;;;;;21.90;18.17;;;;;;;;;;5056268;28;20483;-74
2022/07/12 02:09:20;;;;;;;22.47;18.40;;;;;;;;;;5050873;28;20455;-75
2022/07/12 02:11:47;;;;;;;20.60;18.50;;;;;;;;;;5050168;28;20460;-74
2022/07/12 02:14:16;;;;;;;21.10;18.80;;;;;;;;;;5050594;28;20853;-74
2022/07/12 02:16:44;;;;;;;20.17;18.07;;;;;;;;;;5051548;28;20469;-74
2022/07/12 02:19:11;;;;;;;20.13;18.03;;;;;;;;;;5068675;28;20446;-74
2022/07/12 02:21:39;;;;;;;20.27;18.27;;;;;;;;;;5076871;28;20852;-74
2022/07/12 02:24:06;;;;;;;21.73;19.43;;;;;;;;;;5071668;28;20435;-74
2022/07/12 02:26:34;;;;;;;21.17;18.97;;;;;;;;;;5064448;28;20490;-74
2022/07/12 02:29:01;;;;;;;20.33;18.33;;;;;;;;;;5065639;28;20846;-74
2022/07/12 02:31:30;;;;;;;21.13;18.40;;;;;;;;;;5074046;28;20443;-74
2022/07/12 02:33:57;;;;;;;19.73;17.50;;;;;;;;;;5073481;28;20444;-74
2022/07/12 02:36:25;;;;;;;20.77;18.60;;;;;;;;;;5074274;28;20518;-74
2022/07/12 02:38:52;;;;;;;21.13;18.87;;;;;;;;;;5073398;28;20498;-74
2022/07/12 02:41:19;;;;;;;19.70;17.67;;;;;;;;;;5074664;28;20459;-74
2022/07/12 02:43:46;;;;;;;19.90;17.90;;;;;;;;;;5076194;28;20444;-74
2022/07/12 02:46:14;;;;;;;20.73;17.70;;;;;;;;;;5072259;28;20552;-74
2022/07/12 02:48:43;;;;;;;19.20;17.30;;;;;;;;;;5063845;28;20443;-74
2022/07/12 02:51:10;;;;;;;19.07;17.10;;;;;;;;;;5065927;28;21006;-74
2022/07/12 02:53:38;;;;;;;19.97;17.97;;;;;;;;;;5073435;28;20439;-74
2022/07/12 02:56:05;;;;;;;18.17;16.27;;;;;;;;;;5071870;28;20557;-74
2022/07/12 02:58:33;;;;;;;20.70;16.80;;;;;;;;;;5073645;28;20950;-74
2022/07/12 03:01:00;;;;;;;20.40;18.30;;;;;;;;;;5074281;28;20447;-74
2022/07/12 03:03:27;;;;;;;20.70;18.10;;;;;;;;;;5074094;28;20944;-74
2022/07/12 03:05:56;;;;;;;19.33;17.37;;;;;;;;;;5075614;28;20497;-73
2022/07/12 03:08:23;;;;;;;18.23;16.27;;;;;;;;;;5071881;28;20447;-74
2022/07/12 03:10:50;;;;;;;19.90;17.80;;;;;;;;;;5063539;28;20437;-73
2022/07/12 03:13:17;;;;;;;20.60;16.37;;;;;;;;;;5060393;28;20527;-73
2022/07/12 03:15:45;;;;;;;20.30;18.20;;;;;;;;;;5053056;28;20476;-74
2022/07/12 03:18:13;;;;;;;19.93;17.70;;;;;;;;;;5052635;28;20479;-75
2022/07/12 03:20:40;;;;;;;20.77;18.57;;;;;;;;;;5052069;28;20415;-75
2022/07/12 03:23:09;;;;;;;22.30;19.00;;;;;;;;;;5053709;28;20783;-75
2022/07/12 03:25:36;;;;;;;19.93;17.83;;;;;;;;;;5064864;28;20574;-75
2022/07/12 03:28:04;;;;;;;20.07;17.80;;;;;;;;;;5074331;28;20510;-74
2022/07/12 03:30:31;;;;;;;17.40;15.43;;;;;;;;;;5071917;28;20467;-74
2022/07/12 03:32:58;;;;;;;18.67;16.67;;;;;;;;;;5062828;28;20432;-74
2022/07/12 03:35:25;;;;;;;20.40;18.30;;;;;;;;;;5063975;28;20475;-74
2022/07/12 03:37:53;;;;;;;21.33;16.60;;;;;;;;;;5073078;28;20536;-74
2022/07/12 03:40:23;;;;;;;20.20;17.63;;;;;;;;;;5072237;28;20449;-74
2022/07/12 03:42:51;;;;;;;19.47;17.40;;;;;;;;;;5071744;28;20443;-74
2022/07/12 03:45:18;;;;;;;21.63;19.43;;;;;;;;;;5073226;28;20469;-74
2022/07/12 03:47:46;;;;;;;19.80;17.80;;;;;;;;;;5072112;28;20449;-74
2022/07/12 03:50:15;;;;;;;18.73;16.73;;;;;;;;;;5074828;28;20442;-72
2022/07/12 03:52:43;;;;;;;19.77;17.20;;;;;;;;;;5071296;28;21175;-75
2022/07/12 03:55:10;;;;;;;20.23;18.13;;;;;;;;;;5061224;28;20474;-75
2022/07/12 03:57:39;;;;;;;18.93;17.00;;;;;;;;;;5063787;28;20435;-74
2022/07/12 04:00:08;;;;;;;20.90;18.30;;;;;;;;;;5072320;28;20450;-74
2022/07/12 04:02:37;;;;;;;19.70;17.67;;;;;;;;;;5071677;28;20442;-74
2022/07/12 04:05:04;;;;;;;20.07;18.07;;;;;;;;;;5072493;28;20477;-74
2022/07/12 04:07:31;;;;;;;20.80;18.13;;;;;;;;;;5072855;28;20483;-74
2022/07/12 04:09:59;;;;;;;19.60;16.63;;;;;;;;;;5072979;28;20542;-74
2022/07/12 04:12:26;;;;;;;19.30;17.03;;;;;;;;;;5074466;28;20450;-74
2022/07/12 04:14:54;;;;;;;20.93;18.73;;;;;;;;;;5069943;28;20466;-74
2022/07/12 04:17:22;;;;;;;21.27;18.93;;;;;;;;;;5062410;28;20947;-74
2022/07/12 04:19:49;;;;;;;19.03;17.03;;;;;;;;;;5063840;28;20936;-74
2022/07/12 04:22:16;;;;;;;19.07;17.00;;;;;;;;;;5071871;28;20454;-74
2022/07/12 04:24:43;;;;;;;21.00;18.90;;;;;;;;;;5071257;28;20448;-74
2022/07/12 04:27:10;;;;;;;21.53;19.33;;;;;;;;;;5071911;28;20479;-74
2022/07/12 04:29:38;;;;;;;18.93;17.03;;;;;;;;;;5072327;28;20437;-74
2022/07/12 04:32:07;;;;;;;19.43;17.53;;;;;;;;;;5072732;28;20478;-74
2022/07/12 04:34:34;;;;;;;17.80;16.00;;;;;;;;;;5073981;28;20471;-74
2022/07/12 04:37:01;;;;;;;19.03;17.10;;;;;;;;;;5070386;28;20432;-74
2022/07/12 04:39:28;;;;;;;19.93;17.83;;;;;;;;;;5061262;28;20789;-74
2022/07/12 04:41:55;;;;;;;18.57;16.77;;;;;;;;;;5058912;28;20433;-74
2022/07/12 04:44:22;;;;;;;19.37;17.37;;;;;;;;;;5051640;28;20433;-74
2022/07/12 04:46:50;;;;;;;18.20;16.20;;;;;;;;;;5050946;28;20495;-74
2022/07/12 04:49:18;;;;;;;18.67;16.77;;;;;;;;;;5051851;28;20476;-73
2022/07/12 04:51:46;;;;;;;18.87;16.93;;;;;;;;;;5052201;28;20652;-74
2022/07/12 04:54:13;;;;;;;17.87;16.17;;;;;;;;;;5063051;28;20464;-74
2022/07/12 04:56:40;;;;;;;16.70;15.10;;;;;;;;;;5073570;28;20471;-74
2022/07/12 04:59:07;;;;;;;17.13;15.40;;;;;;;;;;5070208;28;20919;-74
2022/07/12 05:01:34;;;;;;;18.00;16.30;;;;;;;;;;5060284;28;20440;-75
2022/07/12 05:04:02;;;;;;;16.50;14.80;;;;;;;;;;5062676;28;20438;-74
2022/07/12 05:06:30;;;;;;;16.77;15.10;;;;;;;;;;5071267;28;20545;-74
2022/07/12 05:08:57;;;;;;;16.40;14.80;;;;;;;;;;5070958;28;20904;-78
2022/07/12 05:11:25;;;;;;;16.60;14.77;;;;;;;;;;5066923;28;20450;-78
2022/07/12 05:13:52;;;;;;;16.27;14.67;;;;;;;;;;5067947;28;20414;-77
2022/07/12 05:16:19;;;;;;;17.07;15.27;;;;;;;;;;5071971;28;20455;-76
2022/07/12 05:18:46;;;;;;;15.60;14.00;;;;;;;;;;5073448;28;20439;-75
2022/07/12 05:21:13;;;;;;;14.87;13.37;;;;;;;;;;5072217;28;20978;-75
2022/07/12 05:23:42;;;;;;;16.37;14.57;;;;;;;;;;5061585;28;20768;-75
2022/07/12 05:26:09;;;;;;;15.53;14.00;;;;;;;;;;5060865;28;20459;-73
2022/07/12 05:28:36;;;;;;;15.17;13.63;;;;;;;;;;5070519;28;20811;-75
2022/07/12 05:31:04;;;;;;;15.47;13.90;;;;;;;;;;5070545;28;20449;-75
2022/07/12 05:33:31;;;;;;;15.60;13.83;;;;;;;;;;5071290;28;20449;-74
2022/07/12 05:35:58;;;;;;;23.10;14.47;;;;;;;;;;5071348;28;20448;-72
2022/07/12 05:38:25;;;;;;;17.33;15.60;;;;;;;;;;5074630;28;20467;-72
2022/07/12 05:40:54;;;;;;;14.80;13.50;;;;;;;;;;5073559;28;20411;-73
2022/07/12 05:43:21;;;;;;;15.70;14.10;;;;;;;;;;5073484;28;20531;-73
2022/07/12 05:45:48;;;;;;;15.43;13.83;;;;;;;;;;5058914;28;20561;-72
2022/07/12 05:48:16;;;;;;;16.57;14.77;;;;;;;;;;5059852;28;21847;-73
2022/07/12 05:50:43;;;;;;;14.13;12.50;;;;;;;;;;5067330;28;20453;-73
2022/07/12 05:55:52;;;;;;;17.07;15.27;;;;;;;;;;5073344;28;20448;-75
2022/07/12 05:58:21;;;;;;;15.83;14.30;;;;;;;;;;5072123;28;20608;-75
2022/07/12 06:00:48;;;;;;;15.50;13.90;;;;;;;;;;5070293;28;20457;-74
2022/07/12 06:03:16;;;;;;;14.80;13.10;;;;;;;;;;5062888;28;20432;-75
2022/07/12 06:05:43;;;;;;;16.00;14.27;;;;;;;;;;5062097;28;20561;-74
2022/07/12 06:08:10;;;;;;;17.57;15.50;;;;;;;;;;5054776;28;20935;-74
2022/07/12 06:10:38;;;;;;;16.70;14.30;;;;;;;;;;5064408;28;20475;-74
2022/07/12 06:13:05;;;;;;;15.30;13.90;;;;;;;;;;5074801;28;20447;-74
2022/07/12 06:15:33;;;;;;;19.83;15.10;;;;;;;;;;5075001;28;20460;-74
2022/07/12 06:18:01;;;;;;;16.43;14.73;;;;;;;;;;5070133;28;20455;-74
2022/07/12 06:20:28;;;;;;;15.90;14.40;;;;;;;;;;5076561;28;20455;-74
2022/07/12 06:22:56;;;;;;;18.30;15.30;;;;;;;;;;5076399;28;20523;-74
2022/07/12 06:25:26;;;;;;;15.90;14.40;;;;;;;;;;5063494;28;20452;-74
2022/07/12 06:27:53;;;;;;;17.30;15.60;;;;;;;;;;5065039;28;20480;-74
2022/07/12 06:30:21;;;;;;;16.27;14.67;;;;;;;;;;5073542;28;20443;-73
2022/07/12 06:32:50;;;;;;;16.30;14.80;;;;;;;;;;5073355;28;20444;-74
2022/07/12 06:35:17;;;;;;;15.77;14.20;;;;;;;;;;5074009;28;20482;-74
2022/07/12 06:37:44;;;;;;;15.53;13.70;;;;;;;;;;5054246;28;20447;-74
2022/07/12 06:40:12;;;;;;;15.47;13.93;;;;;;;;;;5060412;28;20444;-74
2022/07/12 06:42:39;;;;;;;16.57;14.93;;;;;;;;;;5064922;28;20524;-74
2022/07/12 06:45:07;;;;;;;14.50;13.00;;;;;;;;;;5063178;28;20808;-73
2022/07/12 06:47:34;;;;;;;12.80;11.60;;;;;;;;;;5073267;28;20834;-73
2022/07/12 06:50:03;;;;;;;15.23;13.63;;;;;;;;;;5073071;28;20444;-74
2022/07/12 06:52:30;;;;;;;13.30;11.90;;;;;;;;;;5073907;28;20792;-75
2022/07/12 06:54:58;;;;;;;13.40;12.03;;;;;;;;;;5068792;28;20455;-76
2022/07/12 06:57:26;;;;;;;13.13;11.83;;;;;;;;;;5060071;28;20566;-75
2022/07/12 06:59:54;;;;;;;13.13;11.90;;;;;;;;;;5075996;28;20446;-76
2022/07/12 07:02:21;;;;;;;15.23;13.63;;;;;;;;;;5072727;28;20527;-75
2022/07/12 07:04:48;;;;;;;13.23;11.93;;;;;;;;;;5062592;28;20932;-75
2022/07/12 07:07:17;;;;;;;12.33;11.20;;;;;;;;;;5060884;28;20887;-75
2022/07/12 07:09:44;;;;;;;13.90;12.50;;;;;;;;;;5071118;28;20977;-75
2022/07/12 07:12:11;;;;;;;11.90;10.90;;;;;;;;;;5071484;28;20475;-76
2022/07/12 07:14:39;;;;;;;12.10;10.83;;;;;;;;;;5071699;28;20453;-76
2022/07/12 07:17:06;;;;;;;12.03;10.90;;;;;;;;;;5072975;28;20543;-75
2022/07/12 07:19:33;;;;;;;11.83;10.70;;;;;;;;;;5071280;28;20555;-75
2022/07/12 07:22:00;;;;;;;15.17;13.30;;;;;;;;;;5072734;28;20937;-74
2022/07/12 07:24:29;;;;;;;13.90;11.60;;;;;;;;;;5074941;28;20527;-74
2022/07/12 07:26:56;;;;;;;13.67;11.30;;;;;;;;;;5065227;28;20491;-75
2022/07/12 07:32:05;;;;;;;12.10;10.80;;;;;;;;;;5063283;28;21215;-75
2022/07/12 07:34:32;;;;;;;10.93;9.93;;;;;;;;;;5070168;28;20456;-77
2022/07/12 07:36:59;;;;;;;11.97;10.80;;;;;;;;;;5072605;28;20512;-77
2022/07/12 07:39:26;;;;;;;11.23;10.23;;;;;;;;;;5065804;28;20433;-75
2022/07/12 07:41:55;;;;;;;12.20;11.00;;;;;;;;;;5067867;28;20813;-74
2022/07/12 07:44:22;;;;;;;10.90;9.97;;;;;;;;;;5073338;28;20452;-79
2022/07/12 07:46:49;;;;;;;10.20;9.17;;;;;;;;;;5074748;28;20480;-77
2022/07/12 07:49:16;;;;;;;11.30;10.20;;;;;;;;;;5063905;28;20461;-82
2022/07/12 07:51:44;;;;;;;9.37;8.57;;;;;;;;;;5062310;28;20452;-83
2022/07/12 07:54:11;;;;;;;10.03;9.07;;;;;;;;;;5067311;28;21130;-75
2022/07/12 07:56:38;;;;;;;10.07;9.07;;;;;;;;;;5072071;28;20456;-76
2022/07/12 07:59:07;;;;;;;9.73;8.83;;;;;;;;;;5071778;28;20475;-76
2022/07/12 08:04:16;;;;;;;10.97;9.43;;;;;;;;;;5070700;28;20433;-75
2022/07/12 08:06:44;;;;;;;8.73;7.37;;;;;;;;;;5074586;28;20949;-77
2022/07/12 08:09:11;;;;;;;9.43;7.90;;;;;;;;;;5074703;28;20436;-75
2022/07/12 08:11:38;;;;;;;8.03;7.40;;;;;;;;;;5067292;28;20535;-75
2022/07/12 08:14:08;;;;;;;10.60;9.23;;;;;;;;;;5059663;28;20440;-76
2022/07/12 08:16:36;;;;;;;11.17;9.10;;;;;;;;;;5066735;28;20452;-75
2022/07/12 08:19:03;;;;;;;7.37;6.67;;;;;;;;;;5072241;28;20447;-76
2022/07/12 08:21:31;;;;;;;8.27;7.57;;;;;;;;;;5070262;28;20447;-76
2022/07/12 08:23:58;;;;;;;8.30;7.50;;;;;;;;;;5072433;28;20451;-76
2022/07/12 08:26:25;;;;;;;9.10;7.40;;;;;;;;;;5072097;28;20460;-76
2022/07/12 08:28:52;;;;;;;8.80;8.00;;;;;;;;;;5073504;28;20487;-78
2022/07/12 08:31:21;;;;;;;9.80;8.90;;;;;;;;;;5074251;28;20444;-76
2022/07/12 08:33:49;;;;;;;9.03;8.23;;;;;;;;;;5067854;28;20433;-76
2022/07/12 08:36:16;;;;;;;8.40;7.60;;;;;;;;;;5062198;28;20547;-76
2022/07/12 08:38:44;;;;;;;7.37;6.67;;;;;;;;;;5066564;28;20462;-76
2022/07/12 08:41:13;;;;;;;9.30;6.93;;;;;;;;;;5071627;28;20448;-76
2022/07/12 08:43:40;;;;;;;7.40;6.80;;;;;;;;;;5069632;28;20497;-76
2022/07/12 08:46:07;;;;;;;6.63;6.03;;;;;;;;;;5071521;28;20464;-76
2022/07/12 08:48:36;;;;;;;7.67;7.07;;;;;;;;;;5072232;28;20495;-76
2022/07/12 08:51:04;;;;;;;6.97;6.37;;;;;;;;;;5072978;28;20449;-76
2022/07/12 08:53:31;;;;;;;6.63;5.97;;;;;;;;;;5072556;28;20480;-75
2022/07/12 08:55:59;;;;;;;8.40;7.57;;;;;;;;;;5067446;28;20460;-76
2022/07/12 08:58:26;;;;;;;8.73;7.93;;;;;;;;;;5061902;28;20450;-77
2022/07/12 09:00:54;;;;;;;7.43;6.27;;;;;;;;;;5065404;28;20454;-77
2022/07/12 09:03:21;;;;;;;5.90;5.47;;;;;;;;;;5070151;28;20442;-75
2022/07/12 09:05:52;;;;;;;8.37;5.97;;;;;;;;;;5070520;28;20546;-76
2022/07/12 09:08:19;;;;;;;6.80;6.20;;;;;;;;;;5071363;28;20472;-76
2022/07/12 09:10:55;;;;;;;6.83;6.13;;;;;;;;;;5071768;28;20441;-76
2022/07/12 09:13:42;;;;;;;6.07;5.57;;;;;;;;;;5071619;28;21008;-75
2022/07/12 09:16:17;;;;;;;5.70;5.20;;;;;;;;;;5072385;28;20546;-75
2022/07/12 09:18:44;;;;;;;5.03;4.63;;;;;;;;;;5063094;28;20455;-76
2022/07/12 09:21:22;;;;;;;5.33;4.83;;;;;;;;;;5062776;28;20448;-76
2022/07/12 09:23:52;;;;;;;4.50;4.10;;;;;;;;;;5068391;28;20436;-76
2022/07/12 09:26:22;;;;;;;4.30;3.90;;;;;;;;;;5071793;28;20460;-74
2022/07/12 09:28:51;;;;;;;5.00;4.60;;;;;;;;;;5075098;28;20575;-75
2022/07/12 09:31:18;;;;;;;5.33;4.30;;;;;;;;;;5075879;28;20432;-75
2022/07/12 09:36:43;;;;;;;6.93;5.10;;;;;;;;;;5076914;28;20467;-74
2022/07/12 09:39:10;;;;;;;10.13;5.00;;;;;;;;;;5077386;28;20876;-77
2022/07/12 09:41:37;;;;;;;5.93;5.33;;;;;;;;;;5065381;28;20775;-76
2022/07/12 09:44:05;;;;;;;5.13;4.73;;;;;;;;;;5062783;28;20443;-76
2022/07/12 09:46:33;;;;;;;4.67;4.17;;;;;;;;;;5054939;28;20456;-76
2022/07/12 09:49:01;;;;;;;5.63;4.87;;;;;;;;;;5054164;28;20914;-75
2022/07/12 09:51:30;;;;;;;10.13;4.70;;;;;;;;;;5055031;28;20950;-76
2022/07/12 09:53:59;;;;;;;4.00;3.60;;;;;;;;;;5055452;28;20881;-76
2022/07/12 09:56:28;;;;;;;3.47;3.17;;;;;;;;;;5059373;28;20591;-78
2022/07/12 09:58:57;;;;;;;3.60;3.30;;;;;;;;;;5087456;28;20454;-76
2022/07/12 10:01:25;;;;;;;3.63;3.33;;;;;;;;;;5087986;28;20504;-76
2022/07/12 10:03:53;;;;;;;4.00;3.60;;;;;;;;;;5067104;28;20436;-75
2022/07/12 10:06:25;;;;;;;4.33;3.93;;;;;;;;;;5066821;28;20452;-76
2022/07/12 10:08:53;;;;;;;3.40;3.10;;;;;;;;;;5073562;28;20537;-76
2022/07/12 10:11:22;;;;;;;3.00;2.80;;;;;;;;;;5073738;28;20451;-76
2022/07/12 10:13:50;;;;;;;4.97;3.50;;;;;;;;;;5074865;28;20444;-75
2022/07/12 10:16:18;;;;;;;2.87;2.33;;;;;;;;;;5075373;28;20467;-76
2022/07/12 10:18:45;;;;;;;3.17;2.83;;;;;;;;;;5074028;28;20505;-74
2022/07/12 10:21:21;;;;;;;2.50;2.30;;;;;;;;;;5076747;28;20522;-75
2022/07/12 10:23:49;;;;;;;2.53;2.33;;;;;;;;;;5075845;28;20436;-76
2022/07/12 10:26:31;;;;;;;2.30;2.17;;;;;;;;;;5064089;28;20451;-74
2022/07/12 10:29:02;;;;;;;2.20;2.00;;;;;;;;;;5063450;28;20484;-77
2022/07/12 10:31:31;;;;;;;2.27;2.03;;;;;;;;;;5072525;28;20561;-76
2022/07/12 10:34:09;;;;;;;2.03;1.93;;;;;;;;;;5072719;28;20486;-76
2022/07/12 10:36:51;;;;;;;2.50;2.30;;;;;;;;;;5072744;28;20555;-76
2022/07/12 10:39:19;;;;;;;2.17;1.97;;;;;;;;;;5073258;28;20447;-77
2022/07/12 10:42:06;;;;;;;2.23;2.03;;;;;;;;;;5068244;28;20458;-78
2022/07/12 10:44:36;;;;;;;2.13;1.93;;;;;;;;;;5064088;28;20428;-77
2022/07/12 10:47:04;;;;;;;2.70;2.00;;;;;;;;;;5057245;28;20438;-78
2022/07/12 10:49:32;;;;;;;2.40;2.20;;;;;;;;;;5053826;28;21079;-77
2022/07/12 10:52:14;;;;;;;3.30;2.20;;;;;;;;;;5053042;28;20860;-79
2022/07/12 10:54:42;;;;;;;2.07;1.93;;;;;;;;;;5053177;28;20445;-77
2022/07/12 10:57:09;;;;;;;3.80;2.30;;;;;;;;;;5054288;28;20455;-75
2022/07/12 10:59:38;;;;;;;2.33;2.13;;;;;;;;;;5076053;28;20436;-79
2022/07/12 11:02:06;;;;;;;3.00;2.47;;;;;;;;;;5076418;28;20433;-77
2022/07/12 11:04:33;;;;;;;3.77;2.43;;;;;;;;;;5066349;28;20444;-78
2022/07/12 11:07:03;;;;;;;2.30;2.10;;;;;;;;;;5061330;28;20437;-77
2022/07/12 11:09:31;;;;;;;2.50;2.30;;;;;;;;;;5069038;28;20472;-79
2022/07/12 11:11:58;;;;;;;1.90;1.80;;;;;;;;;;5073598;28;20472;-76
2022/07/12 11:14:29;;;;;;;1.93;1.80;;;;;;;;;;5072826;28;20444;-78
2022/07/12 11:16:57;;;;;;;2.30;2.10;;;;;;;;;;5074000;28;20456;-76
2022/07/12 11:19:25;;;;;;;2.40;2.20;;;;;;;;;;5072915;28;20481;-77
2022/07/12 11:21:55;;;;;;;2.37;2.17;;;;;;;;;;5075599;28;20531;-75
2022/07/12 11:24:23;;;;;;;3.00;2.10;;;;;;;;;;5074356;28;20437;-76
2022/07/12 11:26:50;;;;;;;2.90;2.20;;;;;;;;;;5065919;28;20961;-77
2022/07/12 11:29:18;;;;;;;2.77;1.80;;;;;;;;;;5060817;28;20487;-78
2022/07/12 11:31:45;;;;;;;1.80;1.70;;;;;;;;;;5054228;28;20950;-81
2022/07/12 11:34:22;;;;;;;2.17;1.97;;;;;;;;;;5058666;28;20462;-78
2022/07/12 11:36:52;;;;;;;2.00;1.80;;;;;;;;;;5070221;28;20562;-79
2022/07/12 11:39:30;;;;;;;2.73;1.80;;;;;;;;;;5072930;28;20465;-80
2022/07/12 11:41:58;;;;;;;1.90;1.80;;;;;;;;;;5071910;28;20474;-78
2022/07/12 11:44:29;;;;;;;1.80;1.70;;;;;;;;;;5074998;28;20515;-85
2022/07/12 11:46:56;;;;;;;1.60;1.50;;;;;;;;;;5074622;28;20514;-79
2022/07/12 11:49:25;;;;;;;1.63;1.53;;;;;;;;;;5062428;28;20480;-77
2022/07/12 11:51:53;;;;;;;1.97;1.83;;;;;;;;;;5062214;28;21316;-77
2022/07/12 11:54:26;;;;;;;1.97;1.77;;;;;;;;;;5071165;28;20442;-78
2022/07/12 11:57:05;;;;;;;2.50;1.70;;;;;;;;;;5070685;28;20476;-78
2022/07/12 11:59:32;;;;;;;1.93;1.80;;;;;;;;;;5071370;28;20547;-77
2022/07/12 12:02:07;;;;;;;2.67;1.90;;;;;;;;;;5073373;28;20937;-78
2022/07/12 12:04:45;;;;;;;4.27;2.10;;;;;;;;;;5071655;28;20492;-76
2022/07/12 12:07:16;;;;;;;1.70;1.60;;;;;;;;;;5073707;28;20452;-76
2022/07/12 12:09:57;;;;;;;3.03;1.73;;;;;;;;;;5072357;28;20484;-76
2022/07/12 12:12:25;;;;;;;2.13;1.93;;;;;;;;;;5060452;28;20452;-77
2022/07/12 12:14:52;;;;;;;2.20;2.00;;;;;;;;;;5061004;28;21006;-78
2022/07/12 12:17:19;;;;;;;1.50;1.40;;;;;;;;;;5070591;28;20487;-76
2022/07/12 12:19:48;;;;;;;2.37;1.77;;;;;;;;;;5071778;28;20433;-75
2022/07/12 12:22:28;;;;;;;2.23;1.70;;;;;;;;;;5070844;28;20467;-82
2022/07/12 12:24:59;;;;;;;2.30;1.70;;;;;;;;;;5072804;28;20464;-79
2022/07/12 12:27:26;;;;;;;3.20;1.87;;;;;;;;;;5071941;28;20460;-77
2022/07/12 12:29:54;;;;;;;2.30;2.10;;;;;;;;;;5073292;28;20516;-77
2022/07/12 12:32:21;;;;;;;1.90;1.80;;;;;;;;;;5073898;28;20896;-79
2022/07/12 12:35:03;;;;;;;1.67;1.57;;;;;;;;;;5062758;28;20467;-79
2022/07/12 12:37:33;;;;;;;2.60;1.43;;;;;;;;;;5060562;28;20499;-77
2022/07/12 12:40:01;;;;;;;1.83;1.73;;;;;;;;;;5071283;28;20485;-77
2022/07/12 12:42:28;;;;;;;3.03;2.00;;;;;;;;;;5071004;28;20448;-82
2022/07/12 12:44:55;;;;;;;1.80;1.70;;;;;;;;;;5068677;28;20575;-78
2022/07/12 12:50:03;;;;;;;2.00;1.80;;;;;;;;;;5058682;28;20475;-78
2022/07/12 12:52:31;;;;;;;2.57;1.60;;;;;;;;;;5073927;28;20428;-78
2022/07/12 12:55:00;;;;;;;1.90;1.80;;;;;;;;;;5056701;28;20818;-75
2022/07/12 12:57:28;;;;;;;2.23;2.03;;;;;;;;;;5057530;28;20456;-78
2022/07/12 12:59:56;;;;;;;2.70;1.80;;;;;;;;;;5062412;28;20432;-78
2022/07/12 13:02:24;;;;;;;2.23;2.07;;;;;;;;;;5052385;28;20441;-76
2022/07/12 13:04:51;;;;;;;2.37;2.17;;;;;;;;;;5050685;28;20457;-76
2022/07/12 13:07:19;;;;;;;2.50;1.87;;;;;;;;;;5051232;28;21023;-76
2022/07/12 13:09:46;;;;;;;2.40;1.80;;;;;;;;;;5051800;28;20481;-76
2022/07/12 13:12:14;;;;;;;2.07;1.93;;;;;;;;;;5054727;28;20531;-77
2022/07/12 13:14:42;;;;;;;2.10;1.90;;;;;;;;;;5073177;28;20444;-76
2022/07/12 13:17:09;;;;;;;2.33;1.97;;;;;;;;;;5073588;28;20531;-77
2022/07/12 13:19:37;;;;;;;2.13;1.93;;;;;;;;;;5065435;28;20431;-78
2022/07/12 13:22:04;;;;;;;5.13;2.20;;;;;;;;;;5062073;28;20429;-78
2022/07/12 13:24:31;;;;;;;2.20;1.70;;;;;;;;;;5068580;28;20432;-78
2022/07/12 13:26:58;;;;;;;2.10;1.90;;;;;;;;;;5070955;28;20444;-79
2022/07/12 13:29:27;;;;;;;2.60;1.87;;;;;;;;;;5070320;28;20476;-75
2022/07/12 13:31:54;;;;;;;1.90;1.80;;;;;;;;;;5071911;28;20448;-79
2022/07/12 13:34:21;;;;;;;1.87;1.77;;;;;;;;;;5071048;28;20432;-76
2022/07/12 13:36:48;;;;;;;2.20;1.80;;;;;;;;;;5072985;28;20489;-80
2022/07/12 13:41:57;;;;;;;2.43;2.20;;;;;;;;;;5064187;28;20440;-73
2022/07/12 13:44:24;;;;;;;2.33;2.13;;;;;;;;;;5062628;28;20433;-74
2022/07/12 13:46:53;;;;;;;2.00;1.80;;;;;;;;;;5067366;28;20459;-75
2022/07/12 13:49:20;;;;;;;4.40;2.17;;;;;;;;;;5070797;28;20872;-73
2022/07/12 13:51:47;;;;;;;4.13;1.90;;;;;;;;;;5067839;28;20875;-74
2022/07/12 13:54:15;;;;;;;2.20;2.00;;;;;;;;;;5069145;28;20443;-74
2022/07/12 13:56:42;;;;;;;2.70;2.23;;;;;;;;;;5070084;28;21156;-76
2022/07/12 13:59:09;;;;;;;2.37;2.10;;;;;;;;;;5065776;28;20432;-74
2022/07/12 14:01:36;;;;;;;2.97;2.20;;;;;;;;;;5057584;28;20460;-75
2022/07/12 14:04:05;;;;;;;2.57;2.23;;;;;;;;;;5067340;28;20859;-74
2022/07/12 14:06:32;;;;;;;4.03;1.87;;;;;;;;;;5069555;28;20511;-75
2022/07/12 14:08:59;;;;;;;2.40;2.10;;;;;;;;;;5070102;28;20479;-77
2022/07/12 14:11:27;;;;;;;3.60;2.67;;;;;;;;;;5067855;28;20963;-74
2022/07/12 14:13:54;;;;;;;2.10;1.90;;;;;;;;;;5067887;28;20460;-75
2022/07/12 14:16:21;;;;;;;2.33;2.13;;;;;;;;;;5071738;28;20910;-73
2022/07/12 14:18:48;;;;;;;2.10;1.90;;;;;;;;;;5076595;28;20813;-74
2022/07/12 14:21:17;;;;;;;2.30;2.10;;;;;;;;;;5070071;28;20446;-76
2022/07/12 14:23:44;;;;;;;4.60;2.00;;;;;;;;;;5064688;28;20454;-77
2022/07/12 14:26:11;;;;;;;2.40;2.20;;;;;;;;;;5062497;28;20476;-73
2022/07/12 14:28:38;;;;;;;2.23;1.87;;;;;;;;;;5069762;28;20444;-73
2022/07/12 14:31:06;;;;;;;2.20;2.00;;;;;;;;;;5068716;28;20458;-76
2022/07/12 14:33:33;;;;;;;3.13;2.07;;;;;;;;;;5073186;28;20462;-76
2022/07/12 14:36:00;;;;;;;2.50;2.00;;;;;;;;;;5074362;28;20464;-76
2022/07/12 14:38:29;;;;;;;2.20;2.00;;;;;;;;;;5075408;28;20444;-76
2022/07/12 14:40:56;;;;;;;4.67;2.13;;;;;;;;;;5076498;28;20471;-75
2022/07/12 14:43:23;;;;;;;2.67;1.90;;;;;;;;;;5072980;28;20440;-75
2022/07/12 14:45:51;;;;;;;2.33;1.93;;;;;;;;;;5064111;28;20939;-76
2022/07/12 14:48:18;;;;;;;2.07;1.90;;;;;;;;;;5060668;28;20429;-75
2022/07/12 14:50:45;;;;;;;1.80;1.70;;;;;;;;;;5054026;28;20484;-75